NCAR-RAP Real-Time Weather Data

Output produced by METARs form (20 February 2019  17:47 UTC)
found at http://weather.rap.ucar.edu/surface/
 
RJDC 201200Z VRB02KT 9999 FEW030 SCT/// 07/03 Q1023
RJDC 201100Z VRB03KT 9999 FEW030 SCT040 08/03 Q1023
RJDC 201000Z 33005KT 270V020 9999 FEW030 BKN040 09/03 Q1022
RJDC 200900Z 33004KT 250V050 9999 FEW020 SCT030 BKN040 09/03 Q1022
RJDC 200800Z 30008KT 250V360 9999 FEW020 SCT030 BKN040 10/04 Q1021
RJDC 200700Z 28009KT 240V350 9999 FEW020 SCT030 BKN040 10/05 Q1021
RJDC 200600Z 30007KT 240V350 9999 FEW020 SCT025 BKN030 10/06 Q1021
RJDC 200500Z 30004KT 250V350 9999 FEW020 SCT025 BKN030 10/06 Q1020
RJDC 200400Z 31005KT 250V030 9999 FEW020 SCT025 BKN030 10/06 Q1020
RJDC 200300Z 30006KT 260V010 9999 FEW015 BKN020 BKN025 10/06 Q1021
RJDC 200200Z 29005KT 240V340 9999 FEW015 BKN025 BKN030 10/06 Q1021
RJDC 200100Z 27008KT 250V310 9999 FEW020 SCT025 BKN030 11/06 Q1020
RJDC 200000Z 28007KT 250V320 9999 FEW025 BKN030 BKN035 11/06 Q1020
RJDC 192300Z 32003KT 260V020 9999 FEW020 BKN025 BKN030 10/07 Q1020
RJDC 192200Z 26010KT 9999 FEW020 BKN030 BKN040 11/08 Q1019
RJDC 192130Z 26011KT 9999 FEW015 BKN030 BKN040 11/08 Q1018
RJDC 191200Z 27011KT 9999 -SHRA FEW010 SCT015 BKN025 14/12 Q1016
RJDC 191100Z 28014KT 9999 FEW020 BKN040 14/12 Q1015
RJDC 191000Z 28012KT 9999 FEW010 SCT020 BKN030 14/13 Q1014
RJDC 190900Z 27015KT 9999 FEW010 SCT015 BKN020 15/14 Q1013
RJDC 190800Z 27015KT 250V330 9999 FEW015 BKN025 17/14 Q1012
RJDC 190700Z 07006KT 9999 FEW010 SCT035 15/14 Q1011
RJDC 190600Z 07009KT 9999 FEW015 15/15 Q1010
RJDC 190500Z 06010KT 7000 FEW003 SCT015 BKN030 13/13 Q1011
RJDC 190400Z 06010KT 5000 -SHRA BR FEW002 SCT003 BKN010 13/13 Q1011
RJDC 190343Z 36006KT 320V040 3500 SHRA BR FEW002 BKN003 BKN004 12/12 Q1012 RMK 2ST002 5ST003 6ST004 A2990
RJDC 190326Z 08011KT 1600 R07/1300VP1800D SHRA BR FEW002 SCT003 BKN004 11/11 Q1012 RMK 2ST002 4ST003 6ST004 A2988
RJDC 190300Z 09015KT 2800 -SHRA BR FEW001 SCT002 BKN003 11/11 Q1012
RJDC 190228Z 08017KT 4500 -SHRA BR FEW002 BKN003 BKN004 10/10 Q1013 RMK 1ST002 5ST003 6ST004 A2992
RJDC 190200Z 08018KT 4000 -SHRA BR FEW003 BKN004 BKN010 10/10 Q1013
RJDC 190143Z 08018KT 4000 -RA BR FEW002 SCT003 BKN004 10/10 Q1013 RMK 1ST002 4ST003 6ST004 A2994
RJDC 190131Z 08019KT 3500 RA BR FEW002 SCT003 BKN004 10/10 Q1014 RMK 1ST002 4ST003 6ST004 A2995
RJDC 190124Z 08019KT 4500 -RA BR FEW003 SCT004 BKN005 10/10 Q1014 RMK 1ST003 3ST004 6ST005 A2995
RJDC 190119Z 07018KT 4500 RA BR FEW003 SCT004 BKN005 10/10 Q1014 RMK 1ST003 3ST004 6ST005 A2995
RJDC 190110Z 08019KT 1600 R07/1200VP1800D RA BR FEW003 SCT004 BKN005 10/10 Q1014 RMK 1ST003 3ST004 6ST005 A2995
RJDC 190107Z 08019KT 1000 R07/1200VP1800D +RA FEW003 SCT004 BKN005 10/10 Q1014 RMK 1ST003 3ST004 6ST005 A2995
RJDC 190100Z 08019KT 3500 -RA BR FEW003 SCT004 BKN005 10/10 Q1014
RJDC 190040Z 08019KT 3500 -RA BR FEW003 SCT004 BKN005 10/10 Q1015 RMK 1ST003 3ST004 6ST005 A2997
RJDC 190018Z 09022KT 5000 -RA BR FEW002 SCT003 BKN004 10/10 Q1014 RMK 1ST002 3ST003 5ST004 A2997
RJDC 190000Z 09021KT 3500 -RA BR FEW002 SCT003 BKN004 10/10 Q1015
RJDC 182332Z 09022KT 1200 R07/1200VP1800D RA BR FEW002 SCT003 BKN004 09/09 Q1015 RMK 1ST002 4ST003 6ST004 A2999
RJDC 182329Z 09021KT 0800 R07/1100VP1800U +RA FEW002 SCT003 BKN004 09/09 Q1015 RMK 1ST002 4ST003 6ST004 A2999
RJDC 182326Z 09021KT 1600 R07/1100VP1800D RA BR FEW002 SCT003 BKN004 10/10 Q1016 RMK 1ST002 4ST003 6ST004 A3000
RJDC 182322Z 09020KT 0800 R07/1100VP1800D +RA FEW002 SCT003 BKN004 10/10 Q1015 RMK 1ST002 4ST003 6ST004 A3000
RJDC 182308Z 09019KT 1000 R07/P1800N RA BR FEW002 SCT003 BKN004 10/10 Q1016 RMK 1ST002 4ST003 6ST004 A3000 P/FR
RJDC 182300Z 09018KT 1600 RA BR FEW002 SCT003 BKN004 10/10 Q1016
RJDC 182217Z 09018KT 2500 -RA BR FEW004 SCT005 BKN007 09/09 Q1017 RMK 1ST004 3ST005 6ST007 A3005
RJDC 182200Z 09016KT 1800 RA BR FEW004 SCT007 BKN008 09/09 Q1018
RJDC 182130Z 08018KT 4000 -RA BR FEW004 SCT007 BKN008 09/09 Q1018
RJDC 182116Z 08019KT 3500 -RA BR FEW006 SCT007 BKN008 09/09 Q1017 RMK 1ST006 3ST007 6ST008 A3005
RJDC 182106Z 08017KT 3500 RA BR FEW006 SCT007 BKN008 09/09 Q1018 RMK 1ST006 3ST007 6ST008 A3006
RJDC 181200Z 10009KT 9999 FEW030 BKN070 10/06 Q1024
RJDC 181100Z 10010KT 9999 FEW030 BKN070 09/04 Q1024
RJDC 181000Z 08008KT 9999 FEW030 BKN080 10/04 Q1024
RJDC 180900Z 09006KT 9999 FEW030 BKN090 10/02 Q1024
RJDC 180800Z 09010KT 9999 FEW030 BKN090 BKN150 09/03 Q1023
RJDC 180700Z 09010KT 9999 FEW030 BKN100 09/02 Q1023
RJDC 180600Z 09009KT 9999 FEW030 BKN110 BKN150 10/02 Q1023